LXGBLPMA

Guest
Details From LXGB - Gibraltar
To LPMA - Madeira
Flight Number -
Tags Generated
Created
Modified
Stats Distance 603 nm / 1,116 km
Max Altitude 0 ft / 0 m
Waypoints 3
Social Downloads 14
Likes 0
Share VATSIM

Download

Looking for another format? Having issues loading an existing format? Contact us
Advertisement - Login to hide

Notes

Generated

Route

LXGB FUN LPMA

ID Type Via Altitude Latitude Longitude Leg Dist Tot Dist Heading (true) Name
O LXGB APT - 0 ft / 0 m 36.15080˚ -5.35977˚ - 0 nm - -
FUN VOR - 0 ft / 0 m 32.74704˚ -16.70569˚ 597 nm 597 nm 253° / 247° MADEIRA VOR-DME
O LPMA APT - 0 ft / 0 m 32.68900˚ -16.78409˚ 5 nm 602 nm 229° / 229° -

Altitude Profile

Advertisement - Login to hide

Weather


0- 5 10 15 20 25 30 35+ Temperature / ° C

Clouds and Precipitation
Forecast for 2018-05-24 00:00 UTC. Updated 2 hours ago

Ground ~20,000 ft ~40,000 ft Winds

LXGB

Details ICAO LXGB (GIB)
Name Gibraltar
Region Gibralter
Timezone Europe/Gibraltar (UTC+2.0)
Stats Elevation 15 ft / 5 m (AMSL)
Location 36.151209° -5.349664°
Runways 1
Magnetic Variation 1.073° W

METAR

LXGB 240050Z AUTO 21007KT 9999 // NCD 19/13 Q1014

Decode

TAF

Not found

Departure Runways

ID Width Length Bearing (true) Bearing (mag) Surface Threshold Offset Overrun Length
27 151 ft / 46 m 5,992 ft / 1,826 m 267.56° 268.63° Asphalt 367 ft / 112 m 89 ft / 27 m
9 151 ft / 46 m 5,992 ft / 1,826 m 87.54° 88.61° Asphalt 299 ft / 91 m 52 ft / 16 m

LPMA

Details ICAO LPMA (FNC)
Name Madeira
Region Portugal
Timezone Atlantic/Madeira (UTC+1.0)
Stats Elevation 192 ft / 59 m (AMSL)
Location 32.697704° -16.774449°
Runways 1
Magnetic Variation 4.928° W

METAR

LPMA 240100Z 35007KT 310V010 9999 FEW015 17/10 Q1016

Decode

TAF

TAF LPMA 232300Z 2400/2424 VRB05KT 9999 FEW015 TEMPO 2400/2424 SCT015 SCT030 PROB30 TEMPO 2400/2408 8000 SHRA BKN015 FEW020TCU BECMG 2402/2405 35013KT TEMPO 2412/2424 35018G28KT

Decode

Destination Runways

ID Width Length Bearing (true) Bearing (mag) Surface Threshold Offset Overrun Length
05 141 ft / 43 m 8,683 ft / 2,647 m 42.98° 47.91° Asphalt 472 ft / 144 m 0 ft / 0 m
23 141 ft / 43 m 8,683 ft / 2,647 m 222.99° 227.92° Asphalt 466 ft / 142 m 0 ft / 0 m

Popular Alternatives